Eudora, Kansas
Current Conditions -  °F | °C
As of 2:20 AM on Monday 26 Jan 2015 (Local Time) from KLWC Reporting Station
Haze Haze  
Wind Chill: 21°   Ceiling: Unl
Heat Index: 21°   Visibility: 3mi
Dew Point: 20°   Wind: 0mph
Humidity: 96%   Direction: NA
Pressure: 30.12"   Gusts: NA
Location:  38.94°N, 95.1°W
Report Text: KLWC 260820Z AUTO 00000KT 3SM BR FEW002 M06/M07 A3012 RMK AO2 T10611067
Loading
Personal Weather Stations






























Interactive Weather Map New forecast layout! Learn more

10-Day Weather Forecast

Advertisements
Track Severe Weather on mobile